Time;durP1;ratioP1;P1;durP2;ratioP2;P2;SDS_P1;SDS_P2;PMS_P1;PMS_P2;Temp;Humidity;BMP_temperature;BMP_pressure;BME280_temperature;BME280_humidity;BME280_pressure;Samples;Min_cycle;Max_cycle;Signal;HPM_P1;HPM_P2
2022/05/14 00:01:33;;;;;;;7.25;1.95;;;11.90;65.50;;;;;;5074407;28;20094;-79
2022/05/14 00:04:00;;;;;;;4.18;1.25;;;11.90;65.60;;;;;;5074484;28;20041;-81
2022/05/14 00:06:29;;;;;;;6.53;1.98;;;11.90;65.60;;;;;;5074235;28;20415;-81
2022/05/14 00:09:01;;;;;;;6.03;1.60;;;11.90;65.70;;;;;;5074145;28;20106;-81
2022/05/14 00:14:14;;;;;;;5.72;1.90;;;11.90;65.90;;;;;;5058739;28;20495;-79
2022/05/14 00:16:41;;;;;;;5.28;1.55;;;11.80;66.00;;;;;;5074282;28;20052;-80
2022/05/14 00:19:09;;;;;;;5.95;1.85;;;11.80;66.10;;;;;;5073788;28;20502;-81
2022/05/14 00:21:36;;;;;;;5.85;1.70;;;11.80;66.30;;;;;;5074120;28;20053;-81
2022/05/14 00:24:06;;;;;;;7.80;2.00;;;11.80;66.40;;;;;;5073891;28;20040;-79
2022/05/14 00:26:35;;;;;;;7.80;2.10;;;11.80;66.50;;;;;;5074087;28;20478;-82
2022/05/14 00:29:03;;;;;;;6.05;1.77;;;11.70;66.60;;;;;;5074761;28;20118;-80
2022/05/14 00:31:30;;;;;;;6.93;1.83;;;11.70;66.70;;;;;;5073947;28;20049;-80
2022/05/14 00:33:57;;;;;;;6.95;2.00;;;11.70;66.80;;;;;;5073925;28;20048;-82
2022/05/14 00:36:24;;;;;;;6.20;2.00;;;11.70;66.90;;;;;;5073725;28;20052;-80
2022/05/14 00:38:51;;;;;;;9.18;2.20;;;11.70;67.00;;;;;;5073573;28;20041;-81
2022/05/14 00:41:18;;;;;;;6.30;1.70;;;11.70;67.10;;;;;;5074040;28;20130;-80
2022/05/14 00:43:50;;;;;;;6.50;2.00;;;11.60;67.20;;;;;;5074008;28;20048;-79
2022/05/14 00:46:22;;;;;;;9.98;1.90;;;11.70;67.30;;;;;;5072491;28;20052;-79
2022/05/14 00:48:52;;;;;;;7.30;1.70;;;11.70;67.30;;;;;;5073471;28;20044;-79
2022/05/14 00:51:28;;;;;;;5.97;2.20;;;11.60;67.40;;;;;;5073551;28;20056;-79
2022/05/14 00:54:11;;;;;;;6.97;1.90;;;11.60;67.50;;;;;;5073209;28;20516;-81
2022/05/14 00:56:43;;;;;;;5.65;1.58;;;11.60;67.60;;;;;;5073621;28;20098;-81
2022/05/14 00:59:20;;;;;;;10.80;2.30;;;11.60;67.70;;;;;;5074002;28;20048;-81
2022/05/14 01:01:48;;;;;;;7.50;1.98;;;11.60;67.70;;;;;;5072635;28;20117;-80
2022/05/14 01:04:17;;;;;;;9.20;2.58;;;11.50;67.80;;;;;;5073253;28;20533;-80
2022/05/14 01:06:57;;;;;;;6.03;1.83;;;11.60;67.90;;;;;;5072902;28;20075;-80
2022/05/14 01:09:24;;;;;;;6.28;1.92;;;11.50;68.00;;;;;;5073252;28;20056;-81
2022/05/14 01:11:54;;;;;;;6.80;1.98;;;11.50;68.10;;;;;;5073316;28;20044;-81
2022/05/14 01:14:21;;;;;;;6.22;2.03;;;11.50;68.10;;;;;;5073349;28;20044;-81
2022/05/14 01:16:48;;;;;;;6.75;2.20;;;11.50;68.20;;;;;;5072559;28;20453;-81
2022/05/14 01:19:15;;;;;;;8.52;2.10;;;11.50;68.30;;;;;;5072785;28;20053;-81
2022/05/14 01:22:03;;;;;;;8.32;2.03;;;11.40;68.30;;;;;;5072575;28;20106;-81
2022/05/14 01:27:23;;;;;;;9.02;2.13;;;11.40;68.40;;;;;;5072985;28;20040;-80
2022/05/14 01:29:50;;;;;;;5.97;1.73;;;11.40;68.50;;;;;;5072757;28;20816;-81
2022/05/14 01:32:17;;;;;;;6.57;2.10;;;11.40;68.50;;;;;;5073096;28;20056;-80
2022/05/14 01:34:44;;;;;;;10.43;2.10;;;11.40;68.60;;;;;;5072458;28;20491;-80
2022/05/14 01:37:11;;;;;;;6.57;2.10;;;11.40;68.60;;;;;;5071005;28;20615;-81
2022/05/14 01:39:38;;;;;;;8.88;2.20;;;11.40;68.60;;;;;;5071331;28;20052;-80
2022/05/14 01:42:05;;;;;;;6.20;1.90;;;11.40;68.70;;;;;;5072640;28;20097;-80
2022/05/14 01:44:32;;;;;;;8.02;1.85;;;11.30;68.70;;;;;;5072518;28;20502;-79
2022/05/14 01:46:59;;;;;;;6.43;2.10;;;11.30;68.80;;;;;;5073069;28;20052;-81
2022/05/14 01:49:26;;;;;;;7.28;2.05;;;11.30;68.80;;;;;;5072306;28;20102;-82
2022/05/14 01:51:55;;;;;;;8.30;2.25;;;11.30;68.90;;;;;;5072054;28;20105;-81
2022/05/14 01:54:22;;;;;;;6.95;2.17;;;11.30;68.90;;;;;;5072270;28;20044;-81
2022/05/14 01:56:49;;;;;;;11.70;2.35;;;11.20;69.00;;;;;;5072007;28;20086;-81
2022/05/14 01:59:16;;;;;;;6.80;2.25;;;11.20;69.00;;;;;;5072516;28;20578;-80
2022/05/14 02:01:43;;;;;;;7.45;2.08;;;11.20;69.10;;;;;;5071954;28;20090;-82
2022/05/14 02:04:14;;;;;;;8.80;2.35;;;11.20;69.10;;;;;;5072073;28;20510;-82
2022/05/14 02:06:42;;;;;;;6.88;2.00;;;11.20;69.20;;;;;;5071685;28;20452;-81
2022/05/14 02:09:11;;;;;;;7.55;2.00;;;11.20;69.30;;;;;;5072099;28;20051;-80
2022/05/14 02:11:39;;;;;;;6.78;2.00;;;11.20;69.30;;;;;;5071948;28;20056;-79
2022/05/14 02:14:07;;;;;;;6.80;1.77;;;11.20;69.30;;;;;;5072492;28;20115;-79
2022/05/14 02:16:34;;;;;;;8.05;2.20;;;11.10;69.30;;;;;;5071815;28;20052;-81
2022/05/14 02:19:01;;;;;;;6.82;1.92;;;11.10;69.40;;;;;;5071654;28;20049;-81
2022/05/14 02:21:28;;;;;;;8.95;2.50;;;11.10;69.40;;;;;;5071574;28;20048;-81
2022/05/14 02:23:56;;;;;;;6.35;2.17;;;11.10;69.50;;;;;;5071917;28;20040;-80
2022/05/14 02:26:23;;;;;;;8.95;2.50;;;11.00;69.60;;;;;;5071954;28;20052;-80
2022/05/14 02:28:50;;;;;;;6.70;2.10;;;11.00;69.60;;;;;;5072281;28;20098;-81
2022/05/14 02:31:17;;;;;;;6.65;2.15;;;11.00;69.70;;;;;;5071612;28;20779;-80
2022/05/14 02:33:44;;;;;;;7.82;1.80;;;11.00;69.70;;;;;;5071332;28;20426;-80
2022/05/14 02:36:11;;;;;;;7.90;2.05;;;11.00;69.80;;;;;;5071708;28;20563;-81
2022/05/14 02:38:39;;;;;;;6.68;1.92;;;11.00;69.90;;;;;;5071684;28;20109;-80
2022/05/14 02:41:07;;;;;;;6.53;2.00;;;10.90;69.90;;;;;;5072188;28;20060;-79
2022/05/14 02:43:35;;;;;;;6.95;2.45;;;11.00;70.00;;;;;;5071568;28;20106;-81
2022/05/14 02:46:03;;;;;;;11.82;2.35;;;10.90;70.00;;;;;;5071684;28;20045;-82
2022/05/14 02:48:31;;;;;;;8.35;2.60;;;10.90;70.00;;;;;;5071220;28;20135;-79
2022/05/14 02:50:59;;;;;;;7.22;2.00;;;10.90;70.00;;;;;;5071451;28;20079;-79
2022/05/14 02:53:26;;;;;;;6.10;2.03;;;10.90;70.10;;;;;;5071753;28;20102;-79
2022/05/14 02:55:53;;;;;;;7.25;2.15;;;10.90;70.10;;;;;;5071935;28;20053;-81
2022/05/14 03:01:07;;;;;;;9.32;2.50;;;10.90;70.10;;;;;;5071295;28;20041;-80
2022/05/14 03:03:34;;;;;;;5.80;2.20;;;10.90;70.10;;;;;;5071155;28;20044;-80
2022/05/14 03:06:02;;;;;;;6.60;2.13;;;10.90;70.20;;;;;;5071488;28;20074;-80
2022/05/14 03:08:29;;;;;;;8.77;2.58;;;10.80;70.20;;;;;;5072688;28;20110;-80
2022/05/14 03:10:56;;;;;;;7.60;2.22;;;10.90;70.30;;;;;;5073908;28;20132;-79
2022/05/14 03:13:23;;;;;;;6.03;2.25;;;10.80;70.30;;;;;;5075338;28;20660;-81
2022/05/14 03:15:50;;;;;;;7.20;2.35;;;10.80;70.30;;;;;;5075322;28;20113;-79
2022/05/14 03:18:17;;;;;;;6.57;1.95;;;10.80;70.40;;;;;;5075018;28;20040;-80
2022/05/14 03:20:44;;;;;;;7.97;2.40;;;10.80;70.40;;;;;;5059054;28;20048;-80
2022/05/14 03:23:11;;;;;;;9.20;2.10;;;10.70;70.50;;;;;;5074649;28;20056;-79
2022/05/14 03:25:38;;;;;;;12.20;2.40;;;10.80;70.50;;;;;;5075092;28;20056;-80
2022/05/14 03:28:05;;;;;;;7.20;2.45;;;10.70;70.60;;;;;;5075256;28;20044;-80
2022/05/14 03:30:32;;;;;;;10.73;2.33;;;10.70;70.60;;;;;;5074870;28;20514;-81
2022/05/14 03:32:59;;;;;;;9.40;2.30;;;10.70;70.70;;;;;;5074806;28;20045;-79
2022/05/14 03:35:26;;;;;;;5.03;2.22;;;10.70;70.70;;;;;;5075120;28;20553;-80
2022/05/14 03:37:53;;;;;;;7.18;2.05;;;10.60;70.70;;;;;;5075315;28;20453;-79
2022/05/14 03:40:20;;;;;;;8.07;2.40;;;10.60;70.80;;;;;;5074766;28;20502;-79
2022/05/14 03:42:47;;;;;;;7.72;2.33;;;10.60;70.80;;;;;;5074855;28;20529;-81
2022/05/14 03:45:14;;;;;;;9.40;2.28;;;10.60;70.80;;;;;;5074962;28;20121;-81
2022/05/14 03:47:42;;;;;;;8.18;1.88;;;10.50;70.90;;;;;;5074526;28;20045;-79
2022/05/14 03:50:09;;;;;;;8.30;2.17;;;10.60;70.90;;;;;;5075210;28;20464;-80
2022/05/14 03:52:36;;;;;;;7.82;2.28;;;10.50;70.90;;;;;;5074619;28;20098;-79
2022/05/14 03:55:03;;;;;;;9.65;2.45;;;10.50;71.00;;;;;;5074550;28;20036;-80
2022/05/14 03:57:30;;;;;;;5.05;1.80;;;10.50;71.00;;;;;;5074452;28;20565;-80
2022/05/14 03:59:58;;;;;;;13.60;2.20;;;10.50;71.10;;;;;;5074625;28;20090;-80
2022/05/14 04:02:25;;;;;;;6.07;2.22;;;10.40;71.10;;;;;;5074282;28;20048;-79
2022/05/14 04:04:52;;;;;;;11.00;2.60;;;10.40;71.10;;;;;;5074981;28;20052;-80
2022/05/14 04:07:19;;;;;;;9.65;2.50;;;10.40;71.20;;;;;;5074305;28;20101;-80
2022/05/14 04:09:46;;;;;;;6.00;2.35;;;10.40;71.20;;;;;;5074173;28;20053;-80
2022/05/14 04:12:13;;;;;;;9.13;2.70;;;10.40;71.30;;;;;;5074435;28;20105;-80
2022/05/14 04:14:40;;;;;;;7.63;1.92;;;10.40;71.30;;;;;;5074311;28;20117;-80
2022/05/14 04:17:06;;;;;;;7.15;2.15;;;10.40;71.30;;;;;;5074365;28;20598;-80
2022/05/14 04:19:33;;;;;;;8.02;2.53;;;10.40;71.30;;;;;;5073732;28;20053;-80
2022/05/14 04:22:00;;;;;;;9.30;2.75;;;10.40;71.40;;;;;;5074057;28;20103;-80
2022/05/14 04:24:28;;;;;;;11.52;2.55;;;10.40;71.40;;;;;;5073985;28;20564;-80
2022/05/14 04:26:55;;;;;;;6.40;2.25;;;10.40;71.40;;;;;;5074132;28;20059;-80
2022/05/14 04:29:22;;;;;;;7.15;1.95;;;10.40;71.40;;;;;;5074310;28;20101;-80
2022/05/14 04:31:49;;;;;;;7.00;2.08;;;10.40;71.40;;;;;;5073214;28;20506;-81
2022/05/14 04:34:18;;;;;;;7.20;2.28;;;10.30;71.50;;;;;;5073920;28;20041;-80
2022/05/14 04:36:45;;;;;;;6.78;2.20;;;10.30;71.50;;;;;;5073809;28;20453;-80
2022/05/14 04:39:12;;;;;;;7.10;2.22;;;10.30;71.50;;;;;;5073816;28;20403;-80
2022/05/14 04:41:39;;;;;;;6.13;2.00;;;10.30;71.50;;;;;;5073834;28;20525;-80
2022/05/14 04:44:11;;;;;;;5.38;2.20;;;10.30;71.60;;;;;;5070085;28;20127;-80
2022/05/14 04:46:38;;;;;;;7.55;2.20;;;10.30;71.60;;;;;;5073636;28;20086;-80
2022/05/14 04:49:05;;;;;;;11.50;2.25;;;10.30;71.70;;;;;;5073309;28;20041;-80
2022/05/14 04:51:32;;;;;;;8.05;2.35;;;10.30;71.80;;;;;;5073633;28;20045;-80
2022/05/14 04:53:59;;;;;;;7.45;2.38;;;10.30;71.80;;;;;;5073645;28;20045;-80
2022/05/14 04:56:26;;;;;;;5.90;2.15;;;10.30;72.00;;;;;;5073627;28;20048;-80
2022/05/14 04:58:53;;;;;;;7.13;2.33;;;10.30;72.00;;;;;;5073676;28;20051;-80
2022/05/14 05:01:20;;;;;;;7.88;2.33;;;10.30;72.10;;;;;;5073222;28;20052;-80
2022/05/14 05:03:47;;;;;;;8.18;2.35;;;10.40;72.20;;;;;;5072134;28;20124;-80
2022/05/14 05:06:14;;;;;;;6.68;2.33;;;10.40;72.30;;;;;;5073316;28;20049;-80
2022/05/14 05:08:42;;;;;;;6.15;2.78;;;10.40;72.40;;;;;;5073284;28;20044;-80
2022/05/14 05:11:10;;;;;;;10.98;2.63;;;10.40;72.40;;;;;;5073743;28;20066;-80
2022/05/14 05:13:37;;;;;;;9.75;2.60;;;10.40;72.50;;;;;;5072735;28;20098;-80
2022/05/14 05:16:04;;;;;;;9.07;2.95;;;10.40;72.60;;;;;;5073033;28;20053;-80
2022/05/14 05:18:33;;;;;;;7.78;2.65;;;10.40;72.60;;;;;;5072809;28;20541;-80
2022/05/14 05:20:59;;;;;;;12.40;2.85;;;10.50;72.70;;;;;;5072997;28;20094;-80
2022/05/14 05:23:27;;;;;;;10.27;3.50;;;10.50;72.80;;;;;;5073228;28;20044;-81
2022/05/14 05:25:56;;;;;;;11.68;2.92;;;10.50;72.90;;;;;;5073255;28;20093;-82
2022/05/14 05:28:24;;;;;;;10.52;2.92;;;10.50;73.00;;;;;;5072383;28;20048;-81
2022/05/14 05:30:52;;;;;;;14.85;4.22;;;10.60;73.00;;;;;;5072102;28;20070;-80
2022/05/14 05:33:21;;;;;;;11.20;2.90;;;10.60;73.10;;;;;;5070294;28;20074;-80
2022/05/14 05:35:49;;;;;;;16.90;4.68;;;10.70;73.20;;;;;;5071460;28;20110;-81
2022/05/14 05:38:16;;;;;;;10.10;3.50;;;10.70;73.20;;;;;;5077776;28;20052;-81
2022/05/14 05:40:44;;;;;;;10.15;3.28;;;10.80;73.30;;;;;;5075183;28;20105;-81
2022/05/14 05:43:11;;;;;;;12.82;5.47;;;10.80;73.40;;;;;;5072612;28;20075;-80
2022/05/14 05:45:40;;;;;;;15.23;5.70;;;10.80;73.40;;;;;;5074592;28;20051;-81
2022/05/14 05:48:08;;;;;;;13.35;6.00;;;10.90;73.50;;;;;;5073414;28;20063;-80
2022/05/14 05:50:37;;;;;;;17.60;7.07;;;10.90;73.70;;;;;;5071236;28;20057;-80
2022/05/14 05:53:05;;;;;;;14.43;6.85;;;10.90;73.80;;;;;;5076058;28;20040;-80
2022/05/14 05:58:19;;;;;;;22.40;9.20;;;11.00;74.20;;;;;;5072591;28;20118;-80
2022/05/14 06:00:46;;;;;;;19.30;9.32;;;11.10;74.30;;;;;;5072826;28;20044;-80
2022/05/14 06:03:13;;;;;;;17.08;7.88;;;11.10;74.60;;;;;;5071912;28;20075;-80
2022/05/14 06:05:41;;;;;;;21.92;9.27;;;11.20;74.70;;;;;;5069727;28;20045;-80
2022/05/14 06:08:10;;;;;;;14.57;7.32;;;11.20;74.90;;;;;;5076503;28;20556;-80
2022/05/14 06:10:37;;;;;;;21.67;9.93;;;11.30;75.00;;;;;;5072498;28;20460;-80
2022/05/14 06:13:05;;;;;;;18.95;9.70;;;11.30;75.00;;;;;;5074789;28;20074;-80
2022/05/14 06:15:31;;;;;;;28.77;10.68;;;11.40;75.10;;;;;;5083979;28;20054;-80
2022/05/14 06:18:02;;;;;;;16.25;8.50;;;11.40;75.20;;;;;;5069411;28;20059;-80
2022/05/14 06:20:29;;;;;;;15.00;8.38;;;11.40;75.40;;;;;;5072146;28;20052;-80
2022/05/14 06:23:01;;;;;;;19.15;9.68;;;11.50;75.40;;;;;;5074964;28;20436;-80
2022/05/14 06:25:27;;;;;;;26.95;10.20;;;11.50;75.60;;;;;;5072563;28;20048;-80
2022/05/14 06:27:54;;;;;;;16.40;9.25;;;11.60;75.70;;;;;;5071651;28;20044;-80
2022/05/14 06:30:21;;;;;;;19.33;10.00;;;11.60;75.70;;;;;;5073870;28;20043;-79
2022/05/14 06:32:48;;;;;;;16.88;9.82;;;11.70;75.80;;;;;;5068239;28;20036;-82
2022/05/14 06:35:15;;;;;;;17.27;7.97;;;11.70;76.00;;;;;;5076051;28;20147;-80
2022/05/14 06:37:45;;;;;;;16.15;7.95;;;11.80;76.10;;;;;;5074376;28;20044;-80
2022/05/14 06:40:12;;;;;;;13.00;6.97;;;11.80;76.00;;;;;;5071858;28;20054;-79
2022/05/14 06:42:39;;;;;;;18.33;7.97;;;11.90;76.00;;;;;;5071285;28;20052;-79
2022/05/14 06:45:07;;;;;;;17.27;9.48;;;11.90;75.90;;;;;;5070254;28;20049;-79
2022/05/14 06:47:35;;;;;;;25.98;11.57;;;11.90;75.90;;;;;;5070646;28;20506;-80
2022/05/14 06:50:03;;;;;;;23.08;11.07;;;12.00;75.90;;;;;;5073608;28;20060;-79
2022/05/14 06:52:31;;;;;;;22.65;11.25;;;12.10;76.00;;;;;;5072023;28;20114;-81
2022/05/14 06:54:59;;;;;;;19.90;10.50;;;12.20;76.10;;;;;;5073399;28;20048;-80
2022/05/14 06:57:29;;;;;;;18.48;9.70;;;12.20;76.20;;;;;;5072008;28;20135;-81
2022/05/14 06:59:56;;;;;;;17.88;8.75;;;12.30;76.20;;;;;;5068917;28;20044;-80
2022/05/14 07:02:27;;;;;;;18.60;8.00;;;12.40;76.10;;;;;;5073228;28;20052;-81
2022/05/14 07:07:41;;;;;;;14.00;8.73;;;12.40;76.00;;;;;;5071908;28;20053;-81
2022/05/14 07:10:08;;;;;;;20.58;9.80;;;12.50;75.90;;;;;;5071428;28;20563;-81
2022/05/14 07:12:36;;;;;;;18.80;8.73;;;12.50;75.90;;;;;;5069683;28;20575;-80
2022/05/14 07:15:04;;;;;;;21.02;10.77;;;12.60;76.00;;;;;;5069220;28;20079;-80
2022/05/14 07:17:32;;;;;;;22.08;10.07;;;12.70;76.00;;;;;;5071308;28;20052;-80
2022/05/14 07:19:58;;;;;;;24.95;11.02;;;12.70;76.10;;;;;;5074013;28;20100;-80
2022/05/14 07:22:25;;;;;;;19.80;10.43;;;12.80;76.10;;;;;;5071520;28;20080;-80
2022/05/14 07:24:52;;;;;;;22.33;11.40;;;12.90;76.30;;;;;;5071372;28;20486;-80
2022/05/14 07:27:19;;;;;;;25.30;10.35;;;12.90;76.30;;;;;;5071713;28;20546;-80
2022/05/14 07:29:46;;;;;;;21.75;10.27;;;12.90;76.40;;;;;;5067649;28;20074;-80
2022/05/14 07:32:17;;;;;;;16.55;9.00;;;13.00;76.40;;;;;;5083394;28;20044;-80
2022/05/14 07:34:45;;;;;;;25.02;9.98;;;13.10;76.40;;;;;;5071742;28;20059;-80
2022/05/14 07:37:20;;;;;;;19.13;9.63;;;13.20;76.40;;;;;;5071576;28;20049;-80
2022/05/14 07:39:53;;;;;;;17.63;8.30;;;13.20;76.40;;;;;;5071212;28;20106;-80
2022/05/14 07:42:31;;;;;;;15.07;8.13;;;13.30;76.40;;;;;;5071732;28;20501;-80
2022/05/14 07:45:01;;;;;;;18.58;9.07;;;13.40;76.30;;;;;;5068743;28;20055;-80
2022/05/14 07:47:30;;;;;;;16.85;8.75;;;13.40;76.20;;;;;;5070749;28;20108;-80
2022/05/14 07:49:58;;;;;;;20.00;8.45;;;13.50;76.20;;;;;;5073713;28;20098;-79
2022/05/14 07:52:30;;;;;;;25.27;8.65;;;13.50;76.10;;;;;;5071779;28;20056;-80
2022/05/14 07:54:57;;;;;;;16.38;7.28;;;13.70;76.10;;;;;;5073038;28;20037;-79
2022/05/14 07:57:24;;;;;;;17.55;6.90;;;13.70;76.00;;;;;;5076921;28;20048;-79
2022/05/14 07:59:50;;;;;;;16.90;6.90;;;13.80;75.90;;;;;;5071510;28;20078;-80
2022/05/14 08:02:34;;;;;;;14.85;6.60;;;13.90;75.70;;;;;;5078029;28;20468;-80
2022/05/14 08:05:03;;;;;;;13.88;6.78;;;13.90;75.60;;;;;;5077949;28;20139;-80
2022/05/14 08:07:31;;;;;;;15.80;5.88;;;14.00;75.40;;;;;;5074718;28;20105;-80
2022/05/14 08:09:58;;;;;;;13.77;6.20;;;14.10;75.20;;;;;;5075186;28;20094;-80
2022/05/14 08:12:31;;;;;;;12.45;5.97;;;14.20;75.10;;;;;;5074824;28;20105;-80
2022/05/14 08:14:57;;;;;;;16.60;5.88;;;14.30;75.00;;;;;;5072230;28;20453;-80
2022/05/14 08:17:26;;;;;;;12.15;5.32;;;14.40;74.80;;;;;;5075918;28;20056;-80
2022/05/14 08:19:53;;;;;;;9.18;4.90;;;14.40;74.60;;;;;;5076512;28;20053;-80
2022/05/14 08:25:07;;;;;;;10.90;4.55;;;14.60;74.30;;;;;;5074862;28;20564;-81
2022/05/14 08:27:46;;;;;;;18.10;5.63;;;14.70;74.10;;;;;;5074951;28;20085;-80
2022/05/14 08:30:25;;;;;;;12.63;5.18;;;14.90;73.90;;;;;;5074076;28;20179;-80
2022/05/14 08:32:53;;;;;;;12.40;5.15;;;14.90;73.70;;;;;;5056701;28;20049;-81
2022/05/14 08:35:22;;;;;;;13.63;5.30;;;15.00;73.50;;;;;;5076707;28;20567;-80
2022/05/14 08:37:50;;;;;;;19.50;5.32;;;15.20;73.30;;;;;;5074766;28;20044;-80
2022/05/14 08:40:28;;;;;;;11.43;4.43;;;15.30;73.10;;;;;;5074401;28;20056;-79
2022/05/14 08:43:01;;;;;;;12.52;4.68;;;15.40;72.90;;;;;;5074258;28;20040;-80
2022/05/14 08:45:33;;;;;;;13.63;5.00;;;15.40;72.70;;;;;;5074312;28;20048;-80
2022/05/14 08:48:29;;;;;;;13.00;4.35;;;15.50;72.40;;;;;;5071581;28;20446;-80
2022/05/14 08:51:03;;;;;;;12.10;4.68;;;15.60;72.20;;;;;;5053232;28;20505;-81
2022/05/14 08:53:33;;;;;;;12.63;4.47;;;15.70;72.00;;;;;;5074589;28;20049;-80
2022/05/14 08:56:21;;;;;;;12.75;3.92;;;15.90;71.80;;;;;;5076669;28;20049;-80
2022/05/14 08:59:21;;;;;;;13.32;4.40;;;15.90;71.50;;;;;;5075527;28;20055;-80
2022/05/14 09:01:49;;;;;;;8.15;4.03;;;16.00;71.20;;;;;;5075649;28;20094;-80
2022/05/14 09:04:18;;;;;;;10.13;3.88;;;16.10;71.00;;;;;;5073912;28;20453;-81
2022/05/14 09:06:45;;;;;;;18.73;3.70;;;16.20;70.80;;;;;;5072595;28;20040;-80
2022/05/14 09:09:13;;;;;;;12.23;3.97;;;16.30;70.70;;;;;;5072895;28;20097;-80
2022/05/14 09:11:44;;;;;;;11.18;3.95;;;16.40;70.50;;;;;;5071103;28;20411;-80
2022/05/14 09:14:27;;;;;;;12.23;4.10;;;16.40;70.30;;;;;;5077891;28;20048;-80
2022/05/14 09:17:07;;;;;;;11.75;4.47;;;16.50;70.10;;;;;;5077394;28;20460;-80
2022/05/14 09:19:37;;;;;;;13.80;4.20;;;16.70;69.90;;;;;;5073396;28;20063;-80
2022/05/14 09:22:23;;;;;;;10.07;3.78;;;16.70;69.70;;;;;;5073086;28;20449;-80
2022/05/14 09:25:02;;;;;;;12.57;4.13;;;16.90;69.50;;;;;;5073498;28;20074;-80
2022/05/14 09:27:44;;;;;;;10.38;3.97;;;16.90;69.30;;;;;;5073608;28;20052;-80
2022/05/14 09:30:35;;;;;;;12.88;4.25;;;17.00;69.00;;;;;;5074063;28;20102;-80
2022/05/14 09:33:04;;;;;;;11.25;4.32;;;17.10;68.80;;;;;;5057592;28;20395;-80
2022/05/14 09:35:34;;;;;;;12.27;3.90;;;17.20;68.70;;;;;;5072982;28;20057;-80
2022/05/14 09:38:18;;;;;;;11.35;4.03;;;17.20;68.50;;;;;;5075909;28;20056;-80
2022/05/14 09:40:52;;;;;;;13.48;3.60;;;17.40;68.30;;;;;;5076566;28;20047;-80
2022/05/14 09:43:19;;;;;;;11.20;4.38;;;17.40;68.20;;;;;;5073310;28;20056;-80
2022/05/14 09:46:07;;;;;;;10.40;3.92;;;17.40;68.00;;;;;;5073141;28;20510;-80
2022/05/14 09:48:47;;;;;;;10.60;3.50;;;17.50;67.80;;;;;;5072932;28;20131;-80
2022/05/14 09:51:29;;;;;;;11.88;3.70;;;17.60;67.70;;;;;;5072336;28;20047;-80
2022/05/14 09:54:08;;;;;;;14.35;4.00;;;17.70;67.50;;;;;;5055625;28;20071;-81
2022/05/14 09:56:44;;;;;;;12.55;3.88;;;17.80;67.30;;;;;;5071436;28;20110;-81
2022/05/14 09:59:18;;;;;;;11.63;3.67;;;17.90;67.20;;;;;;5076952;28;20105;-81
2022/05/14 10:01:58;;;;;;;13.85;3.78;;;18.00;67.10;;;;;;5072880;28;20098;-81
2022/05/14 10:04:49;;;;;;;9.27;3.75;;;18.10;66.90;;;;;;5072343;28;20461;-81
2022/05/14 10:07:33;;;;;;;11.20;3.20;;;18.20;66.70;;;;;;5072683;28;20049;-81
2022/05/14 10:10:37;;;;;;;12.23;3.65;;;18.20;66.50;;;;;;5074239;28;20062;-81
2022/05/14 10:13:24;;;;;;;11.23;3.70;;;18.40;66.30;;;;;;5072752;28;20067;-81
2022/05/14 10:16:07;;;;;;;12.32;3.88;;;18.40;66.00;;;;;;5072633;28;20052;-80
2022/05/14 10:19:12;;;;;;;10.00;3.42;;;18.40;65.90;;;;;;5071629;28;20160;-81
2022/05/14 10:21:52;;;;;;;11.50;3.83;;;18.50;65.70;;;;;;5033320;28;20079;-81
2022/05/14 10:27:49;;;;;;;13.20;3.63;;;18.60;65.50;;;;;;5019722;28;20049;-81
2022/05/14 10:30:34;;;;;;;11.23;3.40;;;18.70;65.40;;;;;;4973918;28;20124;-81
2022/05/14 10:33:05;;;;;;;10.57;3.33;;;18.80;65.30;;;;;;4958270;28;20528;-81
2022/05/14 10:36:00;;;;;;;9.77;3.50;;;18.90;65.10;;;;;;4971723;28;20051;-81
2022/05/14 10:38:46;;;;;;;13.52;3.80;;;18.90;65.00;;;;;;4985815;28;20115;-80
2022/05/14 10:41:31;;;;;;;13.55;3.78;;;19.10;64.80;;;;;;4982420;28;20046;-81
2022/05/14 10:44:05;;;;;;;9.98;3.72;;;19.10;64.60;;;;;;4973480;28;20043;-81
2022/05/14 10:46:34;;;;;;;18.90;3.95;;;19.20;64.40;;;;;;4974075;28;20062;-81
2022/05/14 10:49:17;;;;;;;9.90;3.38;;;19.20;64.30;;;;;;4973733;28;20051;-81
2022/05/14 10:51:53;;;;;;;11.55;3.47;;;19.40;64.10;;;;;;4974138;28;20090;-81
2022/05/14 10:54:25;;;;;;;11.15;3.47;;;19.40;63.90;;;;;;4973992;28;20078;-80
2022/05/14 10:57:30;;;;;;;11.43;3.72;;;19.50;63.60;;;;;;4994706;28;20635;-81
2022/05/14 11:00:11;;;;;;;12.68;4.20;;;19.60;63.30;;;;;;4995831;28;20046;-81
2022/05/14 11:03:11;;;;;;;9.73;3.08;;;19.70;63.10;;;;;;5009591;28;20625;-81
2022/05/14 11:05:55;;;;;;;12.98;3.53;;;19.80;62.90;;;;;;5023733;28;20050;-81
2022/05/14 11:08:27;;;;;;;;;;;19.80;62.60;;;;;;5084002;28;20052;-81
2022/05/14 11:11:13;;;;;;;10.23;3.10;;;19.90;62.50;;;;;;5075708;28;20279;-81
2022/05/14 11:13:40;;;;;;;9.63;3.05;;;19.90;62.30;;;;;;5072002;28;20052;-81
2022/05/14 11:16:10;;;;;;;9.10;3.42;;;20.00;62.20;;;;;;5071801;28;20041;-81
2022/05/14 11:18:48;;;;;;;10.98;2.88;;;20.10;62.10;;;;;;5071682;28;20117;-81
2022/05/14 11:21:18;;;;;;;13.70;3.42;;;20.30;61.90;;;;;;5071442;28;20452;-81
2022/05/14 11:23:53;;;;;;;11.35;3.40;;;20.30;61.70;;;;;;5068143;28;20060;-81
2022/05/14 11:26:21;;;;;;;9.52;2.95;;;20.40;61.50;;;;;;5083663;28;20501;-82
2022/05/14 11:28:59;;;;;;;11.20;3.17;;;20.50;61.30;;;;;;5073344;28;20556;-81
2022/05/14 11:31:31;;;;;;;10.88;2.72;;;20.60;61.10;;;;;;5075575;28;20074;-81
2022/05/14 11:34:14;;;;;;;8.32;2.92;;;20.70;61.00;;;;;;5075729;28;20488;-81
2022/05/14 11:36:49;;;;;;;9.38;3.28;;;20.80;60.70;;;;;;5075896;28;20102;-81
2022/05/14 11:39:22;;;;;;;13.23;3.33;;;20.90;60.50;;;;;;5076740;28;20109;-81
2022/05/14 11:41:53;;;;;;;9.75;3.10;;;20.90;60.30;;;;;;5056087;28;20418;-81
2022/05/14 11:44:50;;;;;;;9.50;3.08;;;21.00;60.10;;;;;;5078075;28;20102;-82
2022/05/14 11:47:32;;;;;;;13.73;4.10;;;21.10;59.90;;;;;;5025057;28;20471;-81
2022/05/14 11:50:03;;;;;;;15.73;3.20;;;21.20;59.70;;;;;;5015750;28;20100;-81
2022/05/14 11:53:00;;;;;;;8.15;2.97;;;21.30;59.50;;;;;;5014921;28;20056;-82
2022/05/14 11:55:40;;;;;;;9.02;3.00;;;21.40;59.20;;;;;;5014990;28;20053;-81
2022/05/14 11:58:33;;;;;;;7.85;2.80;;;21.40;59.00;;;;;;5013405;28;20474;-81
2022/05/14 12:01:08;;;;;;;10.60;2.80;;;21.50;58.80;;;;;;5014264;28;20472;-82
2022/05/14 12:03:46;;;;;;;9.93;3.30;;;21.60;58.50;;;;;;5014775;28;20111;-82
2022/05/14 12:06:26;;;;;;;11.55;3.10;;;21.70;58.30;;;;;;5012660;28;20073;-82
2022/05/14 12:08:53;;;;;;;12.27;3.35;;;21.80;58.10;;;;;;4996364;28;20046;-81
2022/05/14 12:11:55;;;;;;;7.85;2.95;;;21.90;58.00;;;;;;5015537;28;20053;-81
2022/05/14 12:14:34;;;;;;;11.65;3.08;;;21.90;57.60;;;;;;5007908;28;20057;-81
2022/05/14 12:17:05;;;;;;;9.85;3.00;;;22.00;57.40;;;;;;5017098;28;20085;-81
2022/05/14 12:19:38;;;;;;;9.93;3.40;;;22.00;57.20;;;;;;5014210;28;20058;-80
2022/05/14 12:22:08;;;;;;;11.70;3.38;;;22.10;56.90;;;;;;5014400;28;20050;-81
2022/05/14 12:24:51;;;;;;;10.57;3.20;;;22.20;56.70;;;;;;5056203;28;20562;-81
2022/05/14 12:27:19;;;;;;;9.63;2.85;;;22.20;56.50;;;;;;5076181;28;20044;-81
2022/05/14 12:29:55;;;;;;;11.45;3.63;;;22.20;56.40;;;;;;5054180;28;20044;-82
2022/05/14 12:35:23;;;;;;;10.40;3.28;;;22.30;56.20;;;;;;5078114;28;20045;-81
2022/05/14 12:37:55;;;;;;;6.32;2.58;;;22.30;56.10;;;;;;5076210;28;20044;-81
2022/05/14 12:40:48;;;;;;;8.50;2.90;;;22.30;56.00;;;;;;5074284;28;20110;-82
2022/05/14 12:43:15;;;;;;;10.18;3.05;;;22.40;55.90;;;;;;5072120;28;20502;-81
2022/05/14 12:45:48;;;;;;;7.20;2.65;;;22.40;55.80;;;;;;5075945;28;20074;-81
2022/05/14 12:48:15;;;;;;;8.93;2.97;;;22.40;55.70;;;;;;5073985;28;20094;-81
2022/05/14 12:50:56;;;;;;;8.95;2.65;;;22.50;55.60;;;;;;5071340;28;20052;-81
2022/05/14 12:53:35;;;;;;;7.78;2.70;;;22.50;55.40;;;;;;5085967;28;20048;-82
2022/05/14 12:56:03;;;;;;;10.48;3.08;;;22.60;55.30;;;;;;5076896;28;20067;-82
2022/05/14 12:58:32;;;;;;;8.10;2.65;;;22.60;55.20;;;;;;5074746;28;20098;-81
2022/05/14 13:01:02;;;;;;;8.13;3.00;;;22.70;55.10;;;;;;5074291;28;20044;-81
2022/05/14 13:03:39;;;;;;;10.30;3.13;;;22.80;55.00;;;;;;5074018;28;20135;-81
2022/05/14 13:06:16;;;;;;;11.85;2.92;;;22.80;54.80;;;;;;5072305;28;20053;-81
2022/05/14 13:08:47;;;;;;;12.55;2.83;;;22.90;54.60;;;;;;5070378;28;20045;-82
2022/05/14 13:11:17;;;;;;;7.85;2.60;;;22.90;54.50;;;;;;5085294;28;20502;-81
2022/05/14 13:13:51;;;;;;;12.90;2.58;;;23.00;54.40;;;;;;5074808;28;20387;-82
2022/05/14 13:16:21;;;;;;;13.15;3.35;;;23.10;54.20;;;;;;5073788;28;20098;-82
2022/05/14 13:18:58;;;;;;;9.13;2.72;;;23.10;54.10;;;;;;5073409;28;20044;-81
2022/05/14 13:21:45;;;;;;;9.07;2.63;;;23.10;54.00;;;;;;5073678;28;20047;-81
2022/05/14 13:24:27;;;;;;;7.35;2.55;;;23.20;53.80;;;;;;5074259;28;20452;-81
2022/05/14 13:26:57;;;;;;;13.57;3.00;;;23.30;53.60;;;;;;5055024;28;20044;-81